sensor_id;sensor_type;location;lat;lon;timestamp;P1;durP1;ratioP1;P2;durP2;ratioP2
20294;SDS011;10306;52.128;5.208;2023-03-01T00:02:13;12.60;;;8.27;;
20294;SDS011;10306;52.128;5.208;2023-03-01T00:04:39;13.20;;;8.97;;
20294;SDS011;10306;52.128;5.208;2023-03-01T00:07:04;10.33;;;8.57;;
20294;SDS011;10306;52.128;5.208;2023-03-01T00:09:30;13.13;;;8.70;;
20294;SDS011;10306;52.128;5.208;2023-03-01T00:11:56;11.40;;;8.60;;
20294;SDS011;10306;52.128;5.208;2023-03-01T00:14:22;13.43;;;9.00;;
20294;SDS011;10306;52.128;5.208;2023-03-01T00:16:48;11.80;;;8.40;;
20294;SDS011;10306;52.128;5.208;2023-03-01T00:19:18;11.57;;;8.57;;
20294;SDS011;10306;52.128;5.208;2023-03-01T00:21:44;11.47;;;8.23;;
20294;SDS011;10306;52.128;5.208;2023-03-01T00:24:10;10.67;;;8.03;;
20294;SDS011;10306;52.128;5.208;2023-03-01T00:26:36;12.10;;;8.53;;
20294;SDS011;10306;52.128;5.208;2023-03-01T00:29:03;14.23;;;8.60;;
20294;SDS011;10306;52.128;5.208;2023-03-01T00:31:29;8.50;;;7.60;;
20294;SDS011;10306;52.128;5.208;2023-03-01T00:33:56;12.23;;;8.93;;
20294;SDS011;10306;52.128;5.208;2023-03-01T00:36:23;10.47;;;7.83;;
20294;SDS011;10306;52.128;5.208;2023-03-01T00:38:50;15.33;;;8.70;;
20294;SDS011;10306;52.128;5.208;2023-03-01T00:41:16;13.00;;;9.20;;
20294;SDS011;10306;52.128;5.208;2023-03-01T00:43:42;13.67;;;8.40;;
20294;SDS011;10306;52.128;5.208;2023-03-01T00:46:10;12.17;;;7.73;;
20294;SDS011;10306;52.128;5.208;2023-03-01T00:48:36;9.03;;;8.13;;
20294;SDS011;10306;52.128;5.208;2023-03-01T00:51:06;10.80;;;7.80;;
20294;SDS011;10306;52.128;5.208;2023-03-01T00:53:33;13.67;;;9.73;;
20294;SDS011;10306;52.128;5.208;2023-03-01T00:55:59;13.17;;;8.13;;
20294;SDS011;10306;52.128;5.208;2023-03-01T00:58:25;11.90;;;8.33;;
20294;SDS011;10306;52.128;5.208;2023-03-01T01:00:51;14.73;;;8.63;;
20294;SDS011;10306;52.128;5.208;2023-03-01T01:03:20;11.03;;;8.57;;
20294;SDS011;10306;52.128;5.208;2023-03-01T01:05:46;12.27;;;8.90;;
20294;SDS011;10306;52.128;5.208;2023-03-01T01:08:13;9.67;;;7.47;;
20294;SDS011;10306;52.128;5.208;2023-03-01T01:10:39;11.90;;;8.73;;
20294;SDS011;10306;52.128;5.208;2023-03-01T01:13:04;17.70;;;9.10;;
20294;SDS011;10306;52.128;5.208;2023-03-01T01:15:34;11.70;;;7.97;;
20294;SDS011;10306;52.128;5.208;2023-03-01T01:18:00;15.20;;;8.63;;
20294;SDS011;10306;52.128;5.208;2023-03-01T01:20:26;11.37;;;8.40;;
20294;SDS011;10306;52.128;5.208;2023-03-01T01:22:52;10.80;;;8.07;;
20294;SDS011;10306;52.128;5.208;2023-03-01T01:25:18;13.17;;;9.10;;
20294;SDS011;10306;52.128;5.208;2023-03-01T01:27:44;14.13;;;8.73;;
20294;SDS011;10306;52.128;5.208;2023-03-01T01:30:10;12.77;;;8.33;;
20294;SDS011;10306;52.128;5.208;2023-03-01T01:32:36;13.23;;;8.40;;
20294;SDS011;10306;52.128;5.208;2023-03-01T01:35:02;12.20;;;8.00;;
20294;SDS011;10306;52.128;5.208;2023-03-01T01:37:28;12.17;;;8.13;;
20294;SDS011;10306;52.128;5.208;2023-03-01T01:39:59;11.00;;;7.80;;
20294;SDS011;10306;52.128;5.208;2023-03-01T01:42:26;11.23;;;7.83;;
20294;SDS011;10306;52.128;5.208;2023-03-01T01:47:36;11.73;;;8.73;;
20294;SDS011;10306;52.128;5.208;2023-03-01T01:50:02;14.20;;;9.27;;
20294;SDS011;10306;52.128;5.208;2023-03-01T01:52:33;13.43;;;8.57;;
20294;SDS011;10306;52.128;5.208;2023-03-01T01:55:02;13.47;;;8.67;;
20294;SDS011;10306;52.128;5.208;2023-03-01T01:57:33;15.63;;;8.90;;
20294;SDS011;10306;52.128;5.208;2023-03-01T02:00:00;12.33;;;9.13;;
20294;SDS011;10306;52.128;5.208;2023-03-01T02:02:28;10.37;;;8.30;;
20294;SDS011;10306;52.128;5.208;2023-03-01T02:04:56;11.07;;;8.20;;
20294;SDS011;10306;52.128;5.208;2023-03-01T02:07:24;12.37;;;8.43;;
20294;SDS011;10306;52.128;5.208;2023-03-01T02:09:51;11.53;;;8.87;;
20294;SDS011;10306;52.128;5.208;2023-03-01T02:12:19;13.00;;;8.77;;
20294;SDS011;10306;52.128;5.208;2023-03-01T02:14:45;14.13;;;9.23;;
20294;SDS011;10306;52.128;5.208;2023-03-01T02:17:12;12.07;;;9.23;;
20294;SDS011;10306;52.128;5.208;2023-03-01T02:22:24;13.30;;;8.90;;
20294;SDS011;10306;52.128;5.208;2023-03-01T02:27:17;12.23;;;8.47;;
20294;SDS011;10306;52.128;5.208;2023-03-01T02:29:49;14.83;;;9.23;;
20294;SDS011;10306;52.128;5.208;2023-03-01T02:32:15;13.47;;;8.97;;
20294;SDS011;10306;52.128;5.208;2023-03-01T02:34:49;10.20;;;7.90;;
20294;SDS011;10306;52.128;5.208;2023-03-01T02:37:15;14.40;;;9.17;;
20294;SDS011;10306;52.128;5.208;2023-03-01T02:39:49;12.67;;;8.70;;
20294;SDS011;10306;52.128;5.208;2023-03-01T02:42:19;10.97;;;8.13;;
20294;SDS011;10306;52.128;5.208;2023-03-01T02:44:46;14.43;;;9.83;;
20294;SDS011;10306;52.128;5.208;2023-03-01T02:47:11;16.23;;;8.80;;
20294;SDS011;10306;52.128;5.208;2023-03-01T02:49:37;13.20;;;9.50;;
20294;SDS011;10306;52.128;5.208;2023-03-01T02:57:11;13.30;;;8.90;;
20294;SDS011;10306;52.128;5.208;2023-03-01T02:59:37;14.33;;;8.97;;
20294;SDS011;10306;52.128;5.208;2023-03-01T03:02:06;13.40;;;9.17;;
20294;SDS011;10306;52.128;5.208;2023-03-01T03:04:32;13.43;;;9.40;;
20294;SDS011;10306;52.128;5.208;2023-03-01T03:06:58;14.33;;;8.77;;
20294;SDS011;10306;52.128;5.208;2023-03-01T03:09:24;14.00;;;9.73;;
20294;SDS011;10306;52.128;5.208;2023-03-01T03:11:50;14.20;;;9.40;;
20294;SDS011;10306;52.128;5.208;2023-03-01T03:14:16;13.50;;;9.23;;
20294;SDS011;10306;52.128;5.208;2023-03-01T03:16:43;13.80;;;8.83;;
20294;SDS011;10306;52.128;5.208;2023-03-01T03:19:10;13.60;;;9.33;;
20294;SDS011;10306;52.128;5.208;2023-03-01T03:21:36;14.03;;;8.90;;
20294;SDS011;10306;52.128;5.208;2023-03-01T03:24:02;14.60;;;9.07;;
20294;SDS011;10306;52.128;5.208;2023-03-01T03:26:28;12.43;;;8.90;;
20294;SDS011;10306;52.128;5.208;2023-03-01T03:28:54;13.27;;;9.57;;
20294;SDS011;10306;52.128;5.208;2023-03-01T03:31:21;11.93;;;8.40;;
20294;SDS011;10306;52.128;5.208;2023-03-01T03:33:47;11.77;;;8.50;;
20294;SDS011;10306;52.128;5.208;2023-03-01T03:36:16;14.37;;;9.60;;
20294;SDS011;10306;52.128;5.208;2023-03-01T03:38:43;15.70;;;9.93;;
20294;SDS011;10306;52.128;5.208;2023-03-01T03:41:10;13.50;;;9.03;;
20294;SDS011;10306;52.128;5.208;2023-03-01T03:43:37;15.20;;;9.60;;
20294;SDS011;10306;52.128;5.208;2023-03-01T03:46:04;13.13;;;9.47;;
20294;SDS011;10306;52.128;5.208;2023-03-01T03:48:30;15.83;;;9.80;;
20294;SDS011;10306;52.128;5.208;2023-03-01T03:50:56;12.33;;;8.97;;
20294;SDS011;10306;52.128;5.208;2023-03-01T03:53:23;13.43;;;9.03;;
20294;SDS011;10306;52.128;5.208;2023-03-01T03:55:51;13.13;;;9.27;;
20294;SDS011;10306;52.128;5.208;2023-03-01T03:58:17;13.50;;;9.87;;
20294;SDS011;10306;52.128;5.208;2023-03-01T04:00:45;12.03;;;8.40;;
20294;SDS011;10306;52.128;5.208;2023-03-01T04:03:11;18.63;;;8.70;;
20294;SDS011;10306;52.128;5.208;2023-03-01T04:05:38;16.60;;;9.43;;
20294;SDS011;10306;52.128;5.208;2023-03-01T04:08:04;15.00;;;9.43;;
20294;SDS011;10306;52.128;5.208;2023-03-01T04:10:35;13.23;;;9.77;;
20294;SDS011;10306;52.128;5.208;2023-03-01T04:13:02;13.73;;;9.50;;
20294;SDS011;10306;52.128;5.208;2023-03-01T04:15:28;13.20;;;9.37;;
20294;SDS011;10306;52.128;5.208;2023-03-01T04:17:54;13.57;;;8.87;;
20294;SDS011;10306;52.128;5.208;2023-03-01T04:20:24;16.87;;;10.37;;
20294;SDS011;10306;52.128;5.208;2023-03-01T04:22:51;15.70;;;9.20;;
20294;SDS011;10306;52.128;5.208;2023-03-01T04:25:17;11.20;;;8.67;;
20294;SDS011;10306;52.128;5.208;2023-03-01T04:27:43;16.20;;;10.20;;
20294;SDS011;10306;52.128;5.208;2023-03-01T04:30:09;15.40;;;9.73;;
20294;SDS011;10306;52.128;5.208;2023-03-01T04:32:36;13.90;;;9.50;;
20294;SDS011;10306;52.128;5.208;2023-03-01T04:35:01;15.07;;;9.57;;
20294;SDS011;10306;52.128;5.208;2023-03-01T04:37:27;17.13;;;10.03;;
20294;SDS011;10306;52.128;5.208;2023-03-01T04:39:54;16.23;;;9.17;;
20294;SDS011;10306;52.128;5.208;2023-03-01T04:42:20;15.43;;;9.43;;
20294;SDS011;10306;52.128;5.208;2023-03-01T04:44:46;15.90;;;9.97;;
20294;SDS011;10306;52.128;5.208;2023-03-01T04:47:12;14.73;;;9.67;;
20294;SDS011;10306;52.128;5.208;2023-03-01T04:49:38;15.97;;;9.80;;
20294;SDS011;10306;52.128;5.208;2023-03-01T04:52:04;15.43;;;9.70;;
20294;SDS011;10306;52.128;5.208;2023-03-01T04:54:31;17.37;;;9.17;;
20294;SDS011;10306;52.128;5.208;2023-03-01T04:56:57;15.80;;;9.37;;
20294;SDS011;10306;52.128;5.208;2023-03-01T04:59:24;16.13;;;9.83;;
20294;SDS011;10306;52.128;5.208;2023-03-01T05:01:50;16.53;;;9.13;;
20294;SDS011;10306;52.128;5.208;2023-03-01T05:04:17;17.57;;;10.00;;
20294;SDS011;10306;52.128;5.208;2023-03-01T05:06:43;14.83;;;9.13;;
20294;SDS011;10306;52.128;5.208;2023-03-01T05:09:09;17.30;;;10.00;;
20294;SDS011;10306;52.128;5.208;2023-03-01T05:11:36;16.37;;;9.73;;
20294;SDS011;10306;52.128;5.208;2023-03-01T05:14:02;15.50;;;9.83;;
20294;SDS011;10306;52.128;5.208;2023-03-01T05:16:28;16.80;;;9.67;;
20294;SDS011;10306;52.128;5.208;2023-03-01T05:18:55;15.27;;;9.53;;
20294;SDS011;10306;52.128;5.208;2023-03-01T05:21:21;14.47;;;9.03;;
20294;SDS011;10306;52.128;5.208;2023-03-01T05:23:47;14.77;;;9.80;;
20294;SDS011;10306;52.128;5.208;2023-03-01T05:26:14;15.43;;;9.37;;
20294;SDS011;10306;52.128;5.208;2023-03-01T05:28:40;13.10;;;9.67;;
20294;SDS011;10306;52.128;5.208;2023-03-01T05:31:06;15.27;;;9.30;;
20294;SDS011;10306;52.128;5.208;2023-03-01T05:33:35;15.33;;;9.63;;
20294;SDS011;10306;52.128;5.208;2023-03-01T05:36:02;16.93;;;10.37;;
20294;SDS011;10306;52.128;5.208;2023-03-01T05:38:28;15.90;;;10.03;;
20294;SDS011;10306;52.128;5.208;2023-03-01T05:40:53;15.50;;;9.87;;
20294;SDS011;10306;52.128;5.208;2023-03-01T05:43:19;13.90;;;8.40;;
20294;SDS011;10306;52.128;5.208;2023-03-01T05:45:45;15.87;;;9.27;;
20294;SDS011;10306;52.128;5.208;2023-03-01T05:48:12;17.67;;;10.17;;
20294;SDS011;10306;52.128;5.208;2023-03-01T05:50:42;15.97;;;10.27;;
20294;SDS011;10306;52.128;5.208;2023-03-01T05:53:15;15.00;;;9.83;;
20294;SDS011;10306;52.128;5.208;2023-03-01T05:55:42;18.57;;;9.40;;
20294;SDS011;10306;52.128;5.208;2023-03-01T05:58:10;20.10;;;9.77;;
20294;SDS011;10306;52.128;5.208;2023-03-01T06:00:36;15.57;;;9.83;;
20294;SDS011;10306;52.128;5.208;2023-03-01T06:03:02;14.67;;;9.47;;
20294;SDS011;10306;52.128;5.208;2023-03-01T06:05:29;14.67;;;9.10;;
20294;SDS011;10306;52.128;5.208;2023-03-01T06:07:57;15.57;;;9.57;;
20294;SDS011;10306;52.128;5.208;2023-03-01T06:10:24;14.03;;;8.87;;
20294;SDS011;10306;52.128;5.208;2023-03-01T06:12:50;18.80;;;9.67;;
20294;SDS011;10306;52.128;5.208;2023-03-01T06:15:16;16.60;;;9.97;;
20294;SDS011;10306;52.128;5.208;2023-03-01T06:17:43;17.90;;;10.20;;
20294;SDS011;10306;52.128;5.208;2023-03-01T06:20:11;14.30;;;9.60;;
20294;SDS011;10306;52.128;5.208;2023-03-01T06:22:37;16.17;;;10.00;;
20294;SDS011;10306;52.128;5.208;2023-03-01T06:25:03;15.70;;;10.57;;
20294;SDS011;10306;52.128;5.208;2023-03-01T06:27:29;17.40;;;9.17;;
20294;SDS011;10306;52.128;5.208;2023-03-01T06:29:55;18.43;;;10.17;;
20294;SDS011;10306;52.128;5.208;2023-03-01T06:32:21;16.07;;;10.80;;
20294;SDS011;10306;52.128;5.208;2023-03-01T06:34:47;16.13;;;10.87;;
20294;SDS011;10306;52.128;5.208;2023-03-01T06:37:13;24.30;;;10.77;;
20294;SDS011;10306;52.128;5.208;2023-03-01T06:39:39;16.83;;;10.17;;
20294;SDS011;10306;52.128;5.208;2023-03-01T06:42:06;14.90;;;9.97;;
20294;SDS011;10306;52.128;5.208;2023-03-01T06:44:33;15.97;;;10.00;;
20294;SDS011;10306;52.128;5.208;2023-03-01T06:46:59;16.37;;;10.30;;
20294;SDS011;10306;52.128;5.208;2023-03-01T06:49:25;20.00;;;11.10;;
20294;SDS011;10306;52.128;5.208;2023-03-01T06:51:50;18.37;;;10.60;;
20294;SDS011;10306;52.128;5.208;2023-03-01T06:54:16;18.27;;;10.50;;
20294;SDS011;10306;52.128;5.208;2023-03-01T06:56:42;16.47;;;10.23;;
20294;SDS011;10306;52.128;5.208;2023-03-01T06:59:08;19.83;;;11.40;;
20294;SDS011;10306;52.128;5.208;2023-03-01T07:01:34;18.83;;;10.50;;
20294;SDS011;10306;52.128;5.208;2023-03-01T07:04:00;22.87;;;11.73;;
20294;SDS011;10306;52.128;5.208;2023-03-01T07:06:26;18.03;;;10.50;;
20294;SDS011;10306;52.128;5.208;2023-03-01T07:08:52;21.53;;;12.30;;
20294;SDS011;10306;52.128;5.208;2023-03-01T07:11:18;17.87;;;11.27;;
20294;SDS011;10306;52.128;5.208;2023-03-01T07:13:44;20.57;;;12.13;;
20294;SDS011;10306;52.128;5.208;2023-03-01T07:16:10;23.40;;;12.63;;
20294;SDS011;10306;52.128;5.208;2023-03-01T07:18:36;21.57;;;11.80;;
20294;SDS011;10306;52.128;5.208;2023-03-01T07:21:09;20.13;;;12.53;;
20294;SDS011;10306;52.128;5.208;2023-03-01T07:23:36;22.33;;;11.57;;
20294;SDS011;10306;52.128;5.208;2023-03-01T07:26:02;21.00;;;12.13;;
20294;SDS011;10306;52.128;5.208;2023-03-01T07:28:28;19.03;;;11.47;;
20294;SDS011;10306;52.128;5.208;2023-03-01T07:30:58;22.20;;;12.27;;
20294;SDS011;10306;52.128;5.208;2023-03-01T07:33:26;21.60;;;12.30;;
20294;SDS011;10306;52.128;5.208;2023-03-01T07:35:55;21.77;;;11.93;;
20294;SDS011;10306;52.128;5.208;2023-03-01T07:38:22;19.60;;;11.67;;
20294;SDS011;10306;52.128;5.208;2023-03-01T07:40:48;21.37;;;11.50;;
20294;SDS011;10306;52.128;5.208;2023-03-01T07:43:14;20.10;;;12.27;;
20294;SDS011;10306;52.128;5.208;2023-03-01T07:45:40;19.80;;;12.83;;
20294;SDS011;10306;52.128;5.208;2023-03-01T07:48:06;23.17;;;12.87;;
20294;SDS011;10306;52.128;5.208;2023-03-01T07:50:32;23.53;;;13.37;;
20294;SDS011;10306;52.128;5.208;2023-03-01T07:52:58;27.10;;;13.63;;
20294;SDS011;10306;52.128;5.208;2023-03-01T07:55:24;24.10;;;14.80;;
20294;SDS011;10306;52.128;5.208;2023-03-01T07:57:50;30.50;;;15.43;;
20294;SDS011;10306;52.128;5.208;2023-03-01T08:00:16;31.87;;;15.90;;
20294;SDS011;10306;52.128;5.208;2023-03-01T08:02:42;28.37;;;14.37;;
20294;SDS011;10306;52.128;5.208;2023-03-01T08:05:08;25.20;;;14.07;;
20294;SDS011;10306;52.128;5.208;2023-03-01T08:07:35;24.47;;;14.00;;
20294;SDS011;10306;52.128;5.208;2023-03-01T08:10:01;26.60;;;13.77;;
20294;SDS011;10306;52.128;5.208;2023-03-01T08:12:27;28.43;;;15.03;;
20294;SDS011;10306;52.128;5.208;2023-03-01T08:14:53;29.00;;;15.37;;
20294;SDS011;10306;52.128;5.208;2023-03-01T08:17:19;27.27;;;14.37;;
20294;SDS011;10306;52.128;5.208;2023-03-01T08:19:45;28.20;;;14.37;;
20294;SDS011;10306;52.128;5.208;2023-03-01T08:22:11;23.00;;;13.73;;
20294;SDS011;10306;52.128;5.208;2023-03-01T08:24:37;26.30;;;14.63;;
20294;SDS011;10306;52.128;5.208;2023-03-01T08:27:03;19.10;;;12.10;;
20294;SDS011;10306;52.128;5.208;2023-03-01T08:29:32;20.83;;;12.33;;
20294;SDS011;10306;52.128;5.208;2023-03-01T08:31:59;18.47;;;11.03;;
20294;SDS011;10306;52.128;5.208;2023-03-01T08:34:25;20.10;;;10.90;;
20294;SDS011;10306;52.128;5.208;2023-03-01T08:36:51;20.93;;;11.83;;
20294;SDS011;10306;52.128;5.208;2023-03-01T08:39:18;14.60;;;10.50;;
20294;SDS011;10306;52.128;5.208;2023-03-01T08:41:44;16.20;;;9.67;;
20294;SDS011;10306;52.128;5.208;2023-03-01T08:44:11;16.10;;;9.37;;
20294;SDS011;10306;52.128;5.208;2023-03-01T08:46:38;17.10;;;10.03;;
20294;SDS011;10306;52.128;5.208;2023-03-01T08:49:09;18.07;;;10.13;;
20294;SDS011;10306;52.128;5.208;2023-03-01T08:51:35;13.70;;;8.77;;
20294;SDS011;10306;52.128;5.208;2023-03-01T08:54:04;13.10;;;9.47;;
20294;SDS011;10306;52.128;5.208;2023-03-01T08:56:30;11.53;;;8.60;;
20294;SDS011;10306;52.128;5.208;2023-03-01T08:58:56;13.63;;;8.90;;
20294;SDS011;10306;52.128;5.208;2023-03-01T09:01:22;10.70;;;8.17;;
20294;SDS011;10306;52.128;5.208;2023-03-01T09:03:48;10.67;;;8.57;;
20294;SDS011;10306;52.128;5.208;2023-03-01T09:06:14;12.30;;;8.77;;
20294;SDS011;10306;52.128;5.208;2023-03-01T09:08:41;11.73;;;7.60;;
20294;SDS011;10306;52.128;5.208;2023-03-01T09:11:09;10.53;;;7.90;;
20294;SDS011;10306;52.128;5.208;2023-03-01T09:13:35;10.57;;;7.33;;
20294;SDS011;10306;52.128;5.208;2023-03-01T09:16:02;12.07;;;7.70;;
20294;SDS011;10306;52.128;5.208;2023-03-01T09:18:28;8.43;;;6.93;;
20294;SDS011;10306;52.128;5.208;2023-03-01T09:21:03;12.33;;;7.53;;
20294;SDS011;10306;52.128;5.208;2023-03-01T09:23:32;8.73;;;7.10;;
20294;SDS011;10306;52.128;5.208;2023-03-01T09:25:58;10.77;;;7.43;;
20294;SDS011;10306;52.128;5.208;2023-03-01T09:28:24;6.97;;;6.27;;
20294;SDS011;10306;52.128;5.208;2023-03-01T09:30:50;8.23;;;6.73;;
20294;SDS011;10306;52.128;5.208;2023-03-01T09:33:16;10.63;;;7.13;;
20294;SDS011;10306;52.128;5.208;2023-03-01T09:35:42;8.60;;;6.50;;
20294;SDS011;10306;52.128;5.208;2023-03-01T09:38:12;7.07;;;6.37;;
20294;SDS011;10306;52.128;5.208;2023-03-01T09:40:41;8.10;;;6.40;;
20294;SDS011;10306;52.128;5.208;2023-03-01T09:43:54;8.33;;;6.77;;
20294;SDS011;10306;52.128;5.208;2023-03-01T09:45:55;7.37;;;6.10;;
20294;SDS011;10306;52.128;5.208;2023-03-01T09:48:22;9.63;;;6.60;;
20294;SDS011;10306;52.128;5.208;2023-03-01T09:50:49;5.93;;;5.00;;
20294;SDS011;10306;52.128;5.208;2023-03-01T09:53:17;6.17;;;5.53;;
20294;SDS011;10306;52.128;5.208;2023-03-01T09:55:44;8.27;;;6.10;;
20294;SDS011;10306;52.128;5.208;2023-03-01T10:00:56;7.30;;;5.33;;
20294;SDS011;10306;52.128;5.208;2023-03-01T10:05:55;5.30;;;4.70;;
20294;SDS011;10306;52.128;5.208;2023-03-01T10:10:56;6.97;;;4.73;;
20294;SDS011;10306;52.128;5.208;2023-03-01T10:13:24;6.70;;;4.70;;
20294;SDS011;10306;52.128;5.208;2023-03-01T10:15:55;5.03;;;4.63;;
20294;SDS011;10306;52.128;5.208;2023-03-01T10:18:26;6.97;;;4.83;;
20294;SDS011;10306;52.128;5.208;2023-03-01T10:23:19;7.63;;;4.80;;
20294;SDS011;10306;52.128;5.208;2023-03-01T10:30:38;5.63;;;5.07;;
20294;SDS011;10306;52.128;5.208;2023-03-01T10:33:23;5.67;;;5.17;;
20294;SDS011;10306;52.128;5.208;2023-03-01T10:35:50;6.20;;;5.60;;
20294;SDS011;10306;52.128;5.208;2023-03-01T10:38:17;5.77;;;5.27;;
20294;SDS011;10306;52.128;5.208;2023-03-01T10:41:27;5.57;;;5.07;;
20294;SDS011;10306;52.128;5.208;2023-03-01T10:43:44;6.23;;;5.27;;
20294;SDS011;10306;52.128;5.208;2023-03-01T10:46:28;4.50;;;4.10;;
20294;SDS011;10306;52.128;5.208;2023-03-01T10:51:39;4.37;;;3.97;;
20294;SDS011;10306;52.128;5.208;2023-03-01T10:54:06;5.03;;;4.63;;
20294;SDS011;10306;52.128;5.208;2023-03-01T10:56:50;5.43;;;4.60;;
20294;SDS011;10306;52.128;5.208;2023-03-01T10:59:38;7.83;;;4.70;;
20294;SDS011;10306;52.128;5.208;2023-03-01T11:02:17;6.03;;;3.97;;
20294;SDS011;10306;52.128;5.208;2023-03-01T11:04:57;7.07;;;4.60;;
20294;SDS011;10306;52.128;5.208;2023-03-01T11:07:23;4.33;;;3.70;;
20294;SDS011;10306;52.128;5.208;2023-03-01T11:09:49;10.23;;;5.47;;
20294;SDS011;10306;52.128;5.208;2023-03-01T11:12:16;5.37;;;4.07;;
20294;SDS011;10306;52.128;5.208;2023-03-01T11:14:49;4.07;;;3.70;;
20294;SDS011;10306;52.128;5.208;2023-03-01T11:17:18;6.30;;;4.00;;
20294;SDS011;10306;52.128;5.208;2023-03-01T11:22:29;7.37;;;4.97;;
20294;SDS011;10306;52.128;5.208;2023-03-01T11:24:56;5.07;;;4.10;;
20294;SDS011;10306;52.128;5.208;2023-03-01T11:27:28;4.60;;;4.23;;
20294;SDS011;10306;52.128;5.208;2023-03-01T11:29:56;4.80;;;4.13;;
20294;SDS011;10306;52.128;5.208;2023-03-01T11:32:25;5.23;;;4.00;;
20294;SDS011;10306;52.128;5.208;2023-03-01T11:34:57;4.93;;;4.30;;
20294;SDS011;10306;52.128;5.208;2023-03-01T11:37:41;4.43;;;4.13;;
20294;SDS011;10306;52.128;5.208;2023-03-01T11:45:14;2.80;;;2.60;;
20294;SDS011;10306;52.128;5.208;2023-03-01T12:13:40;3.60;;;2.53;;
20294;SDS011;10306;52.128;5.208;2023-03-01T12:16:13;2.40;;;2.20;;
20294;SDS011;10306;52.128;5.208;2023-03-01T12:19:14;2.77;;;2.57;;
20294;SDS011;10306;52.128;5.208;2023-03-01T12:22:07;2.23;;;2.13;;
20294;SDS011;10306;52.128;5.208;2023-03-01T12:29:25;2.47;;;2.27;;
20294;SDS011;10306;52.128;5.208;2023-03-01T12:32:04;3.20;;;3.00;;
20294;SDS011;10306;52.128;5.208;2023-03-01T12:44:39;3.50;;;3.30;;
20294;SDS011;10306;52.128;5.208;2023-03-01T12:47:25;2.77;;;2.57;;
20294;SDS011;10306;52.128;5.208;2023-03-01T12:50:00;3.60;;;3.40;;
20294;SDS011;10306;52.128;5.208;2023-03-01T12:55:20;3.03;;;2.83;;
20294;SDS011;10306;52.128;5.208;2023-03-01T12:58:34;2.67;;;2.57;;
20294;SDS011;10306;52.128;5.208;2023-03-01T13:00:41;3.10;;;2.90;;
20294;SDS011;10306;52.128;5.208;2023-03-01T13:03:18;3.20;;;3.00;;
20294;SDS011;10306;52.128;5.208;2023-03-01T13:08:55;3.40;;;3.20;;
20294;SDS011;10306;52.128;5.208;2023-03-01T13:11:20;2.78;;;2.67;;
20294;SDS011;10306;52.128;5.208;2023-03-01T13:13:47;3.58;;;3.20;;
20294;SDS011;10306;52.128;5.208;2023-03-01T13:19:16;3.03;;;2.93;;
20294;SDS011;10306;52.128;5.208;2023-03-01T13:21:41;3.17;;;2.97;;
20294;SDS011;10306;52.128;5.208;2023-03-01T13:29:47;3.17;;;2.97;;
20294;SDS011;10306;52.128;5.208;2023-03-01T13:32:32;2.90;;;2.80;;
20294;SDS011;10306;52.128;5.208;2023-03-01T13:37:28;3.03;;;2.72;;
20294;SDS011;10306;52.128;5.208;2023-03-01T13:39:55;3.10;;;2.90;;
20294;SDS011;10306;52.128;5.208;2023-03-01T13:42:36;2.92;;;2.60;;
20294;SDS011;10306;52.128;5.208;2023-03-01T13:45:02;3.20;;;3.00;;
20294;SDS011;10306;52.128;5.208;2023-03-01T13:47:29;2.95;;;2.75;;
20294;SDS011;10306;52.128;5.208;2023-03-01T13:49:59;2.60;;;2.50;;
20294;SDS011;10306;52.128;5.208;2023-03-01T13:54:55;3.55;;;3.28;;
20294;SDS011;10306;52.128;5.208;2023-03-01T13:57:22;3.20;;;3.00;;
20294;SDS011;10306;52.128;5.208;2023-03-01T13:59:50;2.60;;;2.50;;
20294;SDS011;10306;52.128;5.208;2023-03-01T14:02:16;3.15;;;2.95;;
20294;SDS011;10306;52.128;5.208;2023-03-01T14:04:42;3.30;;;3.08;;
20294;SDS011;10306;52.128;5.208;2023-03-01T14:07:12;3.15;;;3.05;;
20294;SDS011;10306;52.128;5.208;2023-03-01T14:09:40;3.30;;;3.10;;
20294;SDS011;10306;52.128;5.208;2023-03-01T14:14:52;3.25;;;3.05;;
20294;SDS011;10306;52.128;5.208;2023-03-01T14:20:25;3.10;;;2.90;;
20294;SDS011;10306;52.128;5.208;2023-03-01T14:22:53;3.20;;;3.00;;
20294;SDS011;10306;52.128;5.208;2023-03-01T14:25:29;3.38;;;3.17;;
20294;SDS011;10306;52.128;5.208;2023-03-01T14:27:58;3.00;;;2.90;;
20294;SDS011;10306;52.128;5.208;2023-03-01T14:30:26;3.38;;;3.08;;
20294;SDS011;10306;52.128;5.208;2023-03-01T14:32:59;3.22;;;3.03;;
20294;SDS011;10306;52.128;5.208;2023-03-01T14:35:27;3.15;;;2.90;;
20294;SDS011;10306;52.128;5.208;2023-03-01T14:37:53;2.90;;;2.72;;
20294;SDS011;10306;52.128;5.208;2023-03-01T14:40:23;3.80;;;3.50;;
20294;SDS011;10306;52.128;5.208;2023-03-01T14:42:50;2.75;;;2.65;;
20294;SDS011;10306;52.128;5.208;2023-03-01T14:45:17;2.97;;;2.83;;
20294;SDS011;10306;52.128;5.208;2023-03-01T14:47:43;3.20;;;3.00;;
20294;SDS011;10306;52.128;5.208;2023-03-01T14:52:36;3.17;;;2.97;;
20294;SDS011;10306;52.128;5.208;2023-03-01T14:55:04;2.87;;;2.77;;
20294;SDS011;10306;52.128;5.208;2023-03-01T14:57:30;2.53;;;2.43;;
20294;SDS011;10306;52.128;5.208;2023-03-01T14:59:58;3.23;;;3.03;;
20294;SDS011;10306;52.128;5.208;2023-03-01T15:02:26;3.50;;;3.30;;
20294;SDS011;10306;52.128;5.208;2023-03-01T15:04:54;3.47;;;3.23;;
20294;SDS011;10306;52.128;5.208;2023-03-01T15:07:26;3.20;;;3.10;;
20294;SDS011;10306;52.128;5.208;2023-03-01T15:09:53;3.60;;;3.23;;
20294;SDS011;10306;52.128;5.208;2023-03-01T15:12:34;3.40;;;3.20;;
20294;SDS011;10306;52.128;5.208;2023-03-01T15:15:00;4.30;;;4.00;;
20294;SDS011;10306;52.128;5.208;2023-03-01T15:19:52;3.17;;;2.90;;
20294;SDS011;10306;52.128;5.208;2023-03-01T15:22:19;3.23;;;3.10;;
20294;SDS011;10306;52.128;5.208;2023-03-01T15:24:47;3.23;;;3.03;;
20294;SDS011;10306;52.128;5.208;2023-03-01T15:27:15;3.23;;;3.03;;
20294;SDS011;10306;52.128;5.208;2023-03-01T15:29:46;3.37;;;3.17;;
20294;SDS011;10306;52.128;5.208;2023-03-01T15:32:30;5.23;;;3.13;;
20294;SDS011;10306;52.128;5.208;2023-03-01T15:34:57;3.30;;;3.10;;
20294;SDS011;10306;52.128;5.208;2023-03-01T15:40:23;3.40;;;3.10;;
20294;SDS011;10306;52.128;5.208;2023-03-01T15:42:56;3.13;;;2.93;;
20294;SDS011;10306;52.128;5.208;2023-03-01T15:45:24;4.13;;;3.03;;
20294;SDS011;10306;52.128;5.208;2023-03-01T15:47:53;3.07;;;2.87;;
20294;SDS011;10306;52.128;5.208;2023-03-01T15:52:48;2.83;;;2.63;;
20294;SDS011;10306;52.128;5.208;2023-03-01T15:57:43;3.20;;;2.90;;
20294;SDS011;10306;52.128;5.208;2023-03-01T16:00:10;3.30;;;3.00;;
20294;SDS011;10306;52.128;5.208;2023-03-01T16:02:36;3.87;;;3.40;;
20294;SDS011;10306;52.128;5.208;2023-03-01T16:05:03;3.40;;;2.87;;
20294;SDS011;10306;52.128;5.208;2023-03-01T16:07:29;3.10;;;2.83;;
20294;SDS011;10306;52.128;5.208;2023-03-01T16:09:56;3.20;;;3.00;;
20294;SDS011;10306;52.128;5.208;2023-03-01T16:12:22;3.73;;;2.77;;
20294;SDS011;10306;52.128;5.208;2023-03-01T16:14:49;3.13;;;2.90;;
20294;SDS011;10306;52.128;5.208;2023-03-01T16:17:15;3.50;;;3.30;;
20294;SDS011;10306;52.128;5.208;2023-03-01T16:19:41;2.90;;;2.70;;
20294;SDS011;10306;52.128;5.208;2023-03-01T16:22:08;5.30;;;2.80;;
20294;SDS011;10306;52.128;5.208;2023-03-01T16:24:35;3.67;;;3.37;;
20294;SDS011;10306;52.128;5.208;2023-03-01T16:27:01;5.47;;;3.00;;
20294;SDS011;10306;52.128;5.208;2023-03-01T16:29:27;3.50;;;3.20;;
20294;SDS011;10306;52.128;5.208;2023-03-01T16:31:54;3.23;;;3.03;;
20294;SDS011;10306;52.128;5.208;2023-03-01T16:34:20;3.30;;;3.10;;
20294;SDS011;10306;52.128;5.208;2023-03-01T16:36:46;3.17;;;2.97;;
20294;SDS011;10306;52.128;5.208;2023-03-01T16:39:12;3.30;;;3.10;;